Time;durP1;ratioP1;P1;durP2;ratioP2;P2;SDS_P1;SDS_P2;PMS_P1;PMS_P2;Temp;Humidity;BMP_temperature;BMP_pressure;BME280_temperature;BME280_humidity;BME280_pressure;Samples;Min_cycle;Max_cycle;Signal;HPM_P1;HPM_P2
2023/07/17 00:01:45;;;;;;;5.37;4.85;;;;;;;21.94;100.00;100356.16;1456220;89;22427;-79
2023/07/17 00:04:11;;;;;;;5.67;5.03;;;;;;;21.92;100.00;100356.36;1459820;89;21473;-79
2023/07/17 00:06:37;;;;;;;6.75;4.83;;;;;;;21.92;100.00;100356.89;1459389;89;21400;-79
2023/07/17 00:09:04;;;;;;;8.50;5.05;;;;;;;21.92;100.00;100357.71;1453704;89;21408;-79
2023/07/17 00:11:32;;;;;;;5.37;4.87;;;;;;;21.93;100.00;100362.60;1453307;89;21547;-79
2023/07/17 00:13:59;;;;;;;7.53;5.22;;;;;;;21.92;100.00;100360.93;1447897;89;21429;-79
2023/07/17 00:16:27;;;;;;;10.65;5.30;;;;;;;21.88;100.00;100358.40;1459925;89;21392;-79
2023/07/17 00:18:53;;;;;;;6.67;4.62;;;;;;;21.88;100.00;100359.22;1455900;89;21496;-79
2023/07/17 00:21:20;;;;;;;8.15;4.47;;;;;;;21.90;100.00;100354.44;1456283;89;21415;-79
2023/07/17 00:23:47;;;;;;;8.98;4.72;;;;;;;21.91;100.00;100352.56;1441176;89;21355;-79
2023/07/17 00:26:13;;;;;;;10.50;4.83;;;;;;;21.88;100.00;100344.40;1447506;89;21533;-79
2023/07/17 00:28:39;;;;;;;9.23;5.45;;;;;;;21.78;100.00;100345.42;1439260;89;21438;-79
2023/07/17 00:31:06;;;;;;;6.85;5.10;;;;;;;21.67;100.00;100348.89;1445384;89;21384;-77
2023/07/17 00:33:32;;;;;;;7.25;5.00;;;;;;;21.58;100.00;100347.00;1460662;89;21399;-79
2023/07/17 00:35:58;;;;;;;7.10;4.62;;;;;;;21.54;100.00;100345.25;1456486;89;21399;-79
2023/07/17 00:38:25;;;;;;;10.65;4.60;;;;;;;21.54;100.00;100344.44;1462534;89;22848;-79
2023/07/17 00:40:51;;;;;;;7.60;5.42;;;;;;;21.56;100.00;100345.86;1463431;89;22748;-79
2023/07/17 00:43:17;;;;;;;8.98;5.12;;;;;;;21.54;100.00;100339.05;1465884;89;21385;-79
2023/07/17 00:45:46;;;;;;;8.98;5.67;;;;;;;21.53;100.00;100334.72;1465175;89;21502;-79
2023/07/17 00:48:13;;;;;;;5.70;4.90;;;;;;;21.50;100.00;100337.33;1456306;89;21505;-79
2023/07/17 00:50:39;;;;;;;10.23;4.83;;;;;;;21.53;100.00;100340.11;1458529;89;21319;-79
2023/07/17 00:53:08;;;;;;;6.22;5.00;;;;;;;21.55;100.00;100337.50;1457274;89;22322;-80
2023/07/17 00:55:35;;;;;;;7.72;4.80;;;;;;;21.55;100.00;100336.64;1449453;88;21540;-80
2023/07/17 00:58:02;;;;;;;5.37;4.25;;;;;;;21.51;100.00;100328.72;1448732;89;21385;-80
2023/07/17 01:00:28;;;;;;;6.70;4.72;;;;;;;21.45;100.00;100330.44;1462200;89;21705;-79
2023/07/17 01:02:58;;;;;;;6.70;4.65;;;;;;;21.43;100.00;100327.12;1466314;89;21392;-80
2023/07/17 01:05:24;;;;;;;9.18;4.97;;;;;;;21.41;100.00;100331.94;1455876;89;21385;-79
2023/07/17 01:07:54;;;;;;;11.65;5.22;;;;;;;21.42;100.00;100334.91;1456453;89;21459;-80
2023/07/17 01:10:20;;;;;;;7.30;4.50;;;;;;;21.44;100.00;100338.75;1464899;88;21447;-80
2023/07/17 01:12:46;;;;;;;11.00;5.40;;;;;;;21.43;100.00;100341.94;1455606;89;21599;-80
2023/07/17 01:15:12;;;;;;;6.12;4.78;;;;;;;21.40;100.00;100336.99;1444130;89;21452;-80
2023/07/17 01:17:38;;;;;;;8.08;4.97;;;;;;;21.38;100.00;100341.27;1457873;89;22368;-80
2023/07/17 01:20:06;;;;;;;9.68;5.72;;;;;;;21.38;100.00;100331.84;1450309;89;21459;-78
2023/07/17 01:22:38;;;;;;;9.55;5.35;;;;;;;21.39;100.00;100331.32;1457760;89;21392;-79
2023/07/17 01:25:05;;;;;;;7.85;5.08;;;;;;;21.36;100.00;100331.73;1451242;89;21466;-78
2023/07/17 01:27:32;;;;;;;8.58;5.35;;;;;;;21.34;100.00;100328.43;1464533;89;21348;-78
2023/07/17 01:29:58;;;;;;;5.47;4.87;;;;;;;21.36;100.00;100329.89;1462354;89;22353;-79
2023/07/17 01:32:24;;;;;;;20.25;5.60;;;;;;;21.37;100.00;100325.33;1456254;89;21385;-78
2023/07/17 01:34:50;;;;;;;7.83;4.92;;;;;;;21.37;100.00;100322.63;1455789;89;21297;-79
2023/07/17 01:37:16;;;;;;;7.30;5.15;;;;;;;21.34;100.00;100323.05;1457258;89;21385;-79
2023/07/17 01:39:42;;;;;;;6.08;5.42;;;;;;;21.32;100.00;100323.28;1454432;89;21289;-79
2023/07/17 01:42:08;;;;;;;9.03;5.30;;;;;;;21.28;100.00;100321.23;1459939;89;21444;-78
2023/07/17 01:44:35;;;;;;;9.35;5.55;;;;;;;21.22;100.00;100322.13;1457455;89;21533;-79
2023/07/17 01:47:02;;;;;;;10.72;5.67;;;;;;;21.16;100.00;100326.52;1457717;89;22411;-78
2023/07/17 01:49:28;;;;;;;9.60;5.67;;;;;;;21.09;100.00;100330.61;1457562;89;21340;-79
2023/07/17 01:51:54;;;;;;;7.70;6.20;;;;;;;21.06;100.00;100327.02;1456734;89;21377;-79
2023/07/17 01:54:21;;;;;;;11.05;5.30;;;;;;;21.04;100.00;100331.79;1456926;89;21586;-79
2023/07/17 01:56:47;;;;;;;6.30;5.65;;;;;;;21.00;100.00;100330.56;1456097;89;21378;-79
2023/07/17 01:59:13;;;;;;;7.47;5.80;;;;;;;20.95;100.00;100334.45;1458163;89;21935;-78
2023/07/17 02:01:39;;;;;;;10.18;5.58;;;;;;;20.91;100.00;100342.63;1439723;89;21466;-78
2023/07/17 02:04:05;;;;;;;13.62;5.92;;;;;;;20.90;100.00;100347.72;1459810;89;21533;-77
2023/07/17 02:06:31;;;;;;;9.43;6.05;;;;;;;20.86;100.00;100345.14;1459947;88;22287;-78
2023/07/17 02:08:58;;;;;;;13.70;5.37;;;;;;;20.83;100.00;100344.23;1457319;88;21488;-77
2023/07/17 02:11:27;;;;;;;12.90;5.50;;;;;;;20.81;100.00;100344.99;1450346;89;21609;-77
2023/07/17 02:13:52;;;;;;;6.15;5.55;;;;;;;20.80;100.00;100351.39;1465644;89;21407;-79
2023/07/17 02:16:18;;;;;;;6.33;5.72;;;;;;;20.79;100.00;100353.79;1467288;89;21400;-78
2023/07/17 02:18:45;;;;;;;7.60;5.90;;;;;;;20.82;100.00;100347.45;1453516;89;21370;-79
2023/07/17 02:21:11;;;;;;;8.40;4.80;;;;;;;20.84;100.00;100348.59;1457499;89;21512;-79
2023/07/17 02:23:37;;;;;;;6.85;5.53;;;;;;;20.80;100.00;100346.86;1449302;89;21363;-79
2023/07/17 02:26:03;;;;;;;6.67;5.53;;;;;;;20.72;100.00;100342.55;1455864;89;22390;-79
2023/07/17 02:28:29;;;;;;;9.75;5.70;;;;;;;20.66;100.00;100344.77;1460949;89;21372;-79
2023/07/17 02:30:55;;;;;;;7.67;5.95;;;;;;;20.60;100.00;100341.60;1432047;89;21510;-78
2023/07/17 02:33:22;;;;;;;12.37;6.60;;;;;;;20.60;100.00;100340.75;1460449;89;22880;-79
2023/07/17 02:35:48;;;;;;;8.20;5.42;;;;;;;20.58;100.00;100339.64;1456635;89;21392;-77
2023/07/17 02:38:14;;;;;;;9.55;6.03;;;;;;;20.61;100.00;100341.89;1453225;89;21340;-78
2023/07/17 02:40:40;;;;;;;9.58;5.62;;;;;;;20.62;100.00;100342.72;1460534;89;22243;-76
2023/07/17 02:43:07;;;;;;;12.40;6.22;;;;;;;20.61;100.00;100347.27;1462833;89;21393;-77
2023/07/17 02:45:34;;;;;;;6.50;5.85;;;;;;;20.61;100.00;100348.61;1451696;89;21437;-78
2023/07/17 02:48:00;;;;;;;11.75;6.30;;;;;;;20.64;100.00;100349.53;1457557;88;21711;-78
2023/07/17 02:50:26;;;;;;;6.72;5.67;;;;;;;20.70;100.00;100354.04;1463665;89;21400;-78
2023/07/17 02:52:52;;;;;;;9.73;6.47;;;;;;;20.70;100.00;100352.70;1455937;89;22897;-78
2023/07/17 02:55:19;;;;;;;6.62;5.62;;;;;;;20.69;100.00;100353.75;1440223;89;21356;-78
2023/07/17 02:57:46;;;;;;;8.70;5.72;;;;;;;20.69;100.00;100353.75;1455764;89;21521;-77
2023/07/17 03:00:14;;;;;;;6.30;5.33;;;;;;;20.72;100.00;100350.62;1462294;89;21349;-77
2023/07/17 03:02:43;;;;;;;10.48;5.40;;;;;;;20.73;100.00;100354.12;1461177;89;22243;-78
2023/07/17 03:05:10;;;;;;;13.10;6.53;;;;;;;20.73;100.00;100354.95;1460000;89;21408;-78
2023/07/17 03:07:43;;;;;;;7.47;5.83;;;;;;;20.77;100.00;100357.20;1454237;89;22627;-78
2023/07/17 03:22:16;;;;;;;7.50;5.20;;;;;;;21.43;100.00;100355.92;1511192;85;22589;-83
2023/07/17 03:24:42;;;;;;;10.00;6.67;;;;;;;21.26;100.00;100369.07;1482657;86;21360;-82
2023/07/17 03:27:09;;;;;;;9.88;6.67;;;;;;;21.11;100.00;100372.91;1483330;86;21569;-82
2023/07/17 03:29:35;;;;;;;7.22;5.78;;;;;;;21.11;100.00;100372.91;1489646;86;21308;-82
2023/07/17 03:32:02;;;;;;;11.35;6.17;;;;;;;21.05;100.00;100369.75;1490230;86;21344;-80
2023/07/17 03:34:28;;;;;;;12.33;5.92;;;;;;;21.05;100.00;100377.81;1480378;86;21484;-82
2023/07/17 03:36:54;;;;;;;12.70;6.37;;;;;;;21.05;100.00;100377.81;1493141;86;21575;-81
2023/07/17 03:39:21;;;;;;;9.70;6.60;;;;;;;21.08;100.00;100380.07;1487440;86;22232;-81
2023/07/17 03:41:49;;;;;;;13.22;5.65;;;;;;;21.08;100.00;100381.41;1488212;86;21522;-82
2023/07/17 03:44:15;;;;;;;13.30;6.05;;;;;;;21.01;100.00;100376.62;1496302;86;22238;-82
2023/07/17 03:46:41;;;;;;;8.90;5.75;;;;;;;20.97;100.00;100376.73;1488206;86;21477;-82
2023/07/17 03:49:07;;;;;;;9.73;6.45;;;;;;;20.94;100.00;100382.55;1485694;86;21625;-82
2023/07/17 03:51:33;;;;;;;9.43;5.87;;;;;;;20.95;100.00;100384.22;1479937;87;22217;-82
2023/07/17 03:54:00;;;;;;;8.08;6.03;;;;;;;20.98;100.00;100383.78;1490593;86;21432;-82
2023/07/17 03:56:26;;;;;;;10.48;6.78;;;;;;;21.03;100.00;100389.34;1487521;86;21592;-82
2023/07/17 03:58:52;;;;;;;10.30;5.90;;;;;;;21.05;100.00;100380.51;1487018;88;21435;-82
2023/07/17 04:01:18;;;;;;;6.28;5.67;;;;;;;21.12;100.00;100388.03;1488722;88;22549;-80
2023/07/17 04:03:45;;;;;;;9.10;7.08;;;;;;;21.22;100.00;100384.02;1499944;86;21441;-82
2023/07/17 04:06:12;;;;;;;9.85;6.25;;;;;;;21.27;100.00;100376.13;1483846;86;21577;-82
2023/07/17 04:08:38;;;;;;;7.60;5.83;;;;;;;21.34;100.00;100376.88;1481291;87;21368;-82
2023/07/17 04:11:04;;;;;;;11.33;5.40;;;;;;;21.40;100.00;100381.41;1478774;87;22291;-82
2023/07/17 04:13:30;;;;;;;10.82;6.62;;;;;;;;;;1479754;88;21640;-81
2023/07/17 04:16:01;;;;;;;7.65;6.40;;;;;;;21.55;100.00;100381.92;1475907;88;21426;-80
2023/07/17 04:18:27;;;;;;;10.53;5.90;;;;;;;21.63;100.00;100386.19;1487570;88;21426;-80
2023/07/17 04:20:54;;;;;;;12.75;6.15;;;;;;;21.69;100.00;100388.52;1485507;87;22454;-80
2023/07/17 04:23:20;;;;;;;11.40;6.50;;;;;;;21.76;100.00;100383.91;1485738;87;21433;-79
2023/07/17 04:25:46;;;;;;;13.05;6.75;;;;;;;21.82;100.00;100381.66;1477348;87;22232;-80
2023/07/17 04:28:14;;;;;;;8.40;6.15;;;;;;;21.88;100.00;100382.12;1484385;87;21487;-81
2023/07/17 04:30:40;;;;;;;10.03;6.45;;;;;;;21.95;100.00;100386.93;1484088;87;22536;-82
2023/07/17 04:33:06;;;;;;;11.15;7.05;;;;;;;22.00;100.00;100387.06;1480672;87;22487;-81
2023/07/17 04:35:37;;;;;;;9.93;6.87;;;;;;;22.08;100.00;100389.99;1489653;87;21676;-81
2023/07/17 04:38:03;;;;;;;10.65;6.35;;;;;;;22.08;100.00;100389.99;1484922;87;21544;-82
2023/07/17 04:40:31;;;;;;;8.10;6.40;;;;;;;22.20;100.00;100398.19;1482407;88;21477;-84
2023/07/17 04:43:01;;;;;;;11.48;5.70;;;;;;;22.24;100.00;100396.67;1485680;87;21523;-82
2023/07/17 04:45:28;;;;;;;9.05;6.28;;;;;;;22.27;100.00;100397.59;1478324;88;21367;-83
2023/07/17 04:47:55;;;;;;;14.10;6.90;;;;;;;22.36;100.00;100401.62;1487634;88;21448;-81
2023/07/17 04:50:28;;;;;;;8.08;6.33;;;;;;;22.41;100.00;100400.94;1474249;87;21587;-83
2023/07/17 04:52:54;;;;;;;9.45;6.42;;;;;;;22.48;100.00;100403.86;1486335;88;22371;-81
2023/07/17 04:55:23;;;;;;;12.20;6.95;;;;;;;22.56;100.00;100400.04;1484633;87;21943;-81
2023/07/17 04:57:49;;;;;;;14.60;6.92;;;;;;;22.65;100.00;100409.45;1477970;87;21426;-82
2023/07/17 05:00:16;;;;;;;6.78;6.03;;;;;;;22.77;100.00;100409.51;1489753;88;22068;-82
2023/07/17 05:02:43;;;;;;;9.55;6.97;;;;;;;22.92;100.00;100407.73;1476967;87;21524;-82
2023/07/17 05:05:10;;;;;;;11.08;7.12;;;;;;;23.02;100.00;100411.25;1482046;88;22094;-83
2023/07/17 05:07:36;;;;;;;8.35;6.37;;;;;;;23.10;100.00;100410.43;1480676;88;21456;-82
2023/07/17 05:10:03;;;;;;;8.43;7.08;;;;;;;23.17;100.00;100407.63;1488577;88;22283;-82
2023/07/17 05:12:29;;;;;;;7.85;6.42;;;;;;;23.21;100.00;100411.49;1483867;87;21507;-82
2023/07/17 05:14:55;;;;;;;10.93;6.28;;;;;;;23.28;100.00;100412.76;1473483;88;21440;-82
2023/07/17 05:17:21;;;;;;;13.65;6.15;;;;;;;23.34;100.00;100411.83;1485183;87;21447;-82
2023/07/17 05:19:47;;;;;;;8.98;5.62;;;;;;;23.43;100.00;100417.18;1489582;88;21478;-81
2023/07/17 05:22:14;;;;;;;36.65;7.28;;;;;;;23.57;99.66;100415.09;1483461;87;21995;-81
2023/07/17 05:24:40;;;;;;;26.45;7.37;;;;;;;23.71;99.28;100415.19;1490442;88;21713;-81
2023/07/17 05:27:07;;;;;;;12.75;5.87;;;;;;;23.85;98.80;100419.80;1476186;87;21440;-82
2023/07/17 05:29:33;;;;;;;10.58;6.45;;;;;;;23.98;98.06;100417.41;1482248;88;21604;-81
2023/07/17 05:31:59;;;;;;;12.95;5.60;;;;;;;24.10;97.51;100417.67;1487564;88;21442;-82
2023/07/17 05:34:25;;;;;;;9.95;5.67;;;;;;;24.25;97.26;100420.42;1485161;87;21433;-82
2023/07/17 05:36:52;;;;;;;7.62;6.12;;;;;;;24.37;96.77;100416.33;1480919;87;21511;-82
2023/07/17 05:39:18;;;;;;;7.35;5.10;;;;;;;24.45;96.19;100416.00;1488088;87;21582;-81
2023/07/17 05:41:44;;;;;;;7.35;5.83;;;;;;;24.60;95.71;100414.97;1485092;87;21592;-82
2023/07/17 05:44:10;;;;;;;13.13;6.33;;;;;;;24.73;94.96;100418.72;1477783;88;22305;-82
2023/07/17 05:46:36;;;;;;;9.15;5.40;;;;;;;24.87;94.70;100421.16;1488502;87;21547;-81
2023/07/17 05:49:02;;;;;;;6.78;6.08;;;;;;;24.97;93.54;100417.27;1476397;87;21426;-81
2023/07/17 05:51:29;;;;;;;6.40;5.33;;;;;;;25.10;92.98;100415.62;1481750;87;21582;-82
2023/07/17 05:53:56;;;;;;;7.35;4.92;;;;;;;25.20;92.17;100404.16;1472047;88;21508;-84
2023/07/17 05:56:22;;;;;;;10.00;5.00;;;;;;;25.30;91.36;100412.47;1485050;88;21389;-83
2023/07/17 05:58:48;;;;;;;10.25;5.20;;;;;;;25.42;90.94;100411.03;1486398;88;21411;-82
2023/07/17 06:01:15;;;;;;;9.45;5.90;;;;;;;25.54;90.54;100411.77;1483984;88;21614;-82
2023/07/17 06:03:41;;;;;;;23.87;6.50;;;;;;;25.66;90.31;100408.45;1480637;87;21433;-80
2023/07/17 06:06:07;;;;;;;9.83;5.78;;;;;;;25.78;89.52;100403.45;1486646;88;22008;-86
2023/07/17 06:08:34;;;;;;;10.03;5.20;;;;;;;25.90;89.32;100412.35;1487224;87;21433;-86
2023/07/17 06:11:00;;;;;;;14.20;5.67;;;;;;;26.01;88.44;100410.06;1485152;87;22240;-80
2023/07/17 06:13:26;;;;;;;8.00;4.90;;;;;;;26.11;87.68;100411.55;1480901;87;22122;-80
2023/07/17 06:15:52;;;;;;;8.70;5.37;;;;;;;26.19;87.15;100408.12;1477563;87;21508;-84
2023/07/17 06:18:18;;;;;;;6.35;4.67;;;;;;;26.25;85.70;100404.41;1481284;87;23016;-83
2023/07/17 06:20:45;;;;;;;8.73;4.62;;;;;;;26.31;85.22;100406.92;1478494;88;21434;-82
2023/07/17 06:23:11;;;;;;;6.03;4.53;;;;;;;26.42;85.47;100412.48;1479676;87;21625;-84
2023/07/17 06:25:38;;;;;;;8.58;5.05;;;;;;;26.48;84.88;100408.76;1482116;87;22312;-85
2023/07/17 06:28:08;;;;;;;5.40;4.67;;;;;;;26.58;84.83;100413.50;1486479;88;21463;-82
2023/07/17 06:30:34;;;;;;;8.73;4.40;;;;;;;26.66;84.77;100413.06;1484305;87;21375;-84
2023/07/17 06:33:00;;;;;;;6.60;4.92;;;;;;;26.74;83.86;100413.97;1487086;88;21433;-83
2023/07/17 06:35:26;;;;;;;10.88;4.67;;;;;;;26.84;83.81;100414.06;1480818;87;22290;-82
2023/07/17 06:37:53;;;;;;;7.55;4.67;;;;;;;26.97;84.16;100412.30;1486464;88;21404;-81
2023/07/17 06:40:19;;;;;;;5.20;4.62;;;;;;;26.99;82.27;100411.52;1482838;88;21723;-81
2023/07/17 06:42:45;;;;;;;5.90;4.12;;;;;;;27.04;82.17;100409.91;1488744;88;21448;-82
2023/07/17 06:45:11;;;;;;;6.10;4.47;;;;;;;27.08;79.18;100409.70;1476044;88;21493;-82
2023/07/17 06:47:37;;;;;;;8.03;3.72;;;;;;;27.22;81.82;100411.76;1482064;88;21433;-81
2023/07/17 06:50:05;;;;;;;6.90;4.78;;;;;;;27.35;81.25;100402.34;1478440;87;22329;-81
2023/07/17 06:52:31;;;;;;;6.42;4.40;;;;;;;27.49;81.33;100399.20;1486128;87;21448;-80
2023/07/17 06:54:57;;;;;;;6.60;4.70;;;;;;;27.61;80.87;100398.46;1481039;87;22342;-80
2023/07/17 06:57:23;;;;;;;8.35;4.67;;;;;;;27.68;80.62;100398.52;1485002;88;21419;-81
2023/07/17 06:59:49;;;;;;;5.22;4.60;;;;;;;27.78;80.33;100395.04;1481820;87;21433;-80
2023/07/17 07:02:16;;;;;;;8.10;4.83;;;;;;;27.93;80.10;100390.80;1486614;87;21390;-80
2023/07/17 07:04:42;;;;;;;7.78;4.25;;;;;;;28.09;79.58;100393.89;1484661;88;22255;-81
2023/07/17 07:07:08;;;;;;;19.05;5.85;;;;;;;28.25;79.16;100393.41;1491339;88;21425;-81
2023/07/17 07:09:34;;;;;;;5.83;3.92;;;;;;;28.38;78.84;100394.28;1484769;87;21441;-81
2023/07/17 07:12:00;;;;;;;10.08;4.65;;;;;;;28.41;77.27;100398.38;1473716;88;22306;-80
2023/07/17 07:14:26;;;;;;;5.42;4.50;;;;;;;28.50;77.91;100395.44;1470631;88;21589;-81
2023/07/17 07:16:52;;;;;;;9.68;4.25;;;;;;;28.44;77.34;100393.23;1483458;87;21426;-81
2023/07/17 07:19:19;;;;;;;12.40;5.10;;;;;;;28.54;78.38;100397.37;1487294;88;21618;-81
2023/07/17 07:21:45;;;;;;;9.35;4.47;;;;;;;28.67;78.39;100402.02;1489660;87;22358;-81
2023/07/17 07:24:11;;;;;;;10.75;4.30;;;;;;;28.67;77.42;100406.92;1488142;87;22499;-80
2023/07/17 07:26:38;;;;;;;5.40;4.42;;;;;;;28.76;76.96;100408.02;1483186;88;22023;-81
2023/07/17 07:29:04;;;;;;;5.55;4.80;;;;;;;28.87;77.33;100399.89;1481826;87;21617;-80
2023/07/17 07:31:30;;;;;;;6.25;4.35;;;;;;;29.04;77.44;100400.48;1478691;88;21396;-80
2023/07/17 07:33:56;;;;;;;9.90;4.45;;;;;;;29.13;76.64;100401.58;1482335;87;21403;-80
2023/07/17 07:36:23;;;;;;;6.03;4.42;;;;;;;29.26;76.07;100393.94;1491454;87;21484;-81
2023/07/17 07:38:49;;;;;;;5.92;4.12;;;;;;;29.40;76.27;100397.75;1491570;88;22541;-80
2023/07/17 07:41:17;;;;;;;4.60;4.10;;;;;;;29.53;76.43;100393.13;1484620;87;21492;-81
2023/07/17 07:43:43;;;;;;;6.37;4.22;;;;;;;29.64;75.62;100397.50;1487085;87;21463;-81
2023/07/17 07:46:10;;;;;;;8.30;4.35;;;;;;;29.79;75.54;100395.29;1481634;88;21440;-80
2023/07/17 07:48:36;;;;;;;7.85;4.40;;;;;;;29.93;75.47;100384.62;1482043;88;22380;-80
2023/07/17 07:51:03;;;;;;;7.65;4.22;;;;;;;30.06;74.11;100390.02;1487735;88;22538;-79
2023/07/17 07:53:30;;;;;;;7.67;4.28;;;;;;;30.14;73.87;100388.89;1487654;88;21478;-81
2023/07/17 07:55:56;;;;;;;4.78;3.65;;;;;;;30.22;72.95;100388.09;1487378;87;22320;-80
2023/07/17 07:58:22;;;;;;;9.58;4.22;;;;;;;30.29;73.13;100385.31;1487624;88;22064;-81
2023/07/17 08:05:22;;;;;;;8.65;4.85;;;;;;;30.43;72.25;100392.91;1483618;88;22461;-82
2023/07/17 08:07:48;;;;;;;4.35;3.67;;;;;;;30.60;72.23;100391.18;1480857;88;21500;-80
2023/07/17 08:10:14;;;;;;;4.87;4.22;;;;;;;30.72;72.02;100390.28;1475043;88;22431;-80
2023/07/17 08:12:41;;;;;;;8.28;4.00;;;;;;;30.81;71.33;100394.07;1485359;88;21426;-81
2023/07/17 08:15:08;;;;;;;5.03;4.15;;;;;;;30.87;69.96;100386.66;1486778;88;21367;-84
2023/07/17 08:17:35;;;;;;;5.40;3.87;;;;;;;30.89;70.22;100389.93;1491053;88;22314;-84
2023/07/17 08:20:03;;;;;;;7.78;4.15;;;;;;;30.90;69.36;100391.03;1485589;87;21507;-83
2023/07/17 08:22:29;;;;;;;8.40;4.05;;;;;;;30.87;69.12;100385.29;1487078;87;21558;-83
2023/07/17 08:24:56;;;;;;;4.12;3.72;;;;;;;30.85;69.27;100390.25;1486072;88;21592;-79
2023/07/17 08:27:22;;;;;;;4.30;3.90;;;;;;;30.91;69.41;100381.72;1485432;88;21404;-82
2023/07/17 08:29:49;;;;;;;6.78;4.22;;;;;;;31.08;70.21;100387.34;1493343;88;21654;-83
2023/07/17 08:32:15;;;;;;;4.60;4.03;;;;;;;31.09;66.84;100386.23;1482435;88;21382;-82
2023/07/17 08:34:41;;;;;;;7.55;4.25;;;;;;;31.18;68.75;100387.25;1479564;87;21580;-82
2023/07/17 08:37:08;;;;;;;11.10;5.05;;;;;;;31.25;67.72;100389.12;1484859;88;21374;-82
2023/07/17 08:39:35;;;;;;;9.20;4.25;;;;;;;31.34;67.83;100394.78;1486058;87;22631;-81
2023/07/17 08:42:01;;;;;;;10.95;4.05;;;;;;;31.43;67.29;100384.33;1485109;87;21485;-80
2023/07/17 08:44:29;;;;;;;5.10;3.37;;;;;;;31.53;66.99;100389.42;1480699;88;21568;-83
2023/07/17 08:46:56;;;;;;;6.30;4.00;;;;;;;31.59;65.46;100387.74;1479251;88;21477;-82
2023/07/17 08:49:25;;;;;;;6.78;4.03;;;;;;;31.54;66.41;100389.70;1481620;87;21515;-82
2023/07/17 08:51:54;;;;;;;4.40;4.00;;;;;;;31.68;67.13;100393.40;1481127;87;21448;-82
2023/07/17 08:54:20;;;;;;;4.72;3.98;;;;;;;31.84;66.27;100394.84;1492243;87;21507;-82
2023/07/17 08:56:49;;;;;;;5.92;3.50;;;;;;;32.06;66.55;100394.92;1477266;87;21596;-81
2023/07/17 08:59:16;;;;;;;8.35;4.03;;;;;;;32.22;66.45;100396.91;1475882;88;21514;-81
2023/07/17 09:01:44;;;;;;;4.58;3.75;;;;;;;32.37;66.48;100396.73;1487227;87;22386;-81
2023/07/17 09:04:11;;;;;;;12.68;4.12;;;;;;;32.52;66.14;100393.00;1491584;87;21515;-81
2023/07/17 09:06:38;;;;;;;5.33;3.92;;;;;;;32.53;64.17;100394.61;1469578;88;21359;-81
2023/07/17 09:09:04;;;;;;;5.47;3.83;;;;;;;32.46;63.26;100392.25;1488605;88;21448;-81
2023/07/17 09:11:30;;;;;;;7.62;4.35;;;;;;;32.58;64.31;100397.29;1462448;88;22350;-82
2023/07/17 09:13:56;;;;;;;8.85;3.70;;;;;;;32.73;64.27;100391.58;1480109;87;21684;-81
2023/07/17 09:16:24;;;;;;;8.33;4.17;;;;;;;32.89;63.79;100391.38;1476945;87;21493;-80
2023/07/17 09:18:53;;;;;;;4.28;3.83;;;;;;;32.84;59.99;100397.73;1479607;87;21412;-82
2023/07/17 09:21:23;;;;;;;9.70;4.83;;;;;;;32.65;61.28;100396.35;1479163;88;21632;-82
2023/07/17 09:23:55;;;;;;;18.48;3.70;;;;;;;32.75;63.45;100393.48;1489798;87;21485;-81
2023/07/17 09:26:25;;;;;;;12.68;4.10;;;;;;;32.89;63.84;100388.63;1485059;88;22321;-81
2023/07/17 09:28:57;;;;;;;9.30;3.98;;;;;;;32.92;63.05;100385.29;1480636;88;21544;-81
2023/07/17 09:31:31;;;;;;;8.83;4.42;;;;;;;33.06;64.09;100387.56;1484726;88;21611;-82
2023/07/17 09:34:00;;;;;;;12.55;4.17;;;;;;;33.19;63.56;100385.41;1490325;87;22381;-81
2023/07/17 09:36:27;;;;;;;11.63;5.00;;;;;;;33.33;63.62;100386.02;1481970;88;22254;-82
2023/07/17 09:38:56;;;;;;;5.60;4.08;;;;;;;33.43;62.74;100393.52;1473801;88;21596;-81
2023/07/17 09:41:25;;;;;;;7.00;4.17;;;;;;;33.43;62.49;100396.26;1485125;88;22991;-81
2023/07/17 09:44:05;;;;;;;7.45;3.83;;;;;;;33.50;62.53;100389.00;1482803;88;21485;-81
2023/07/17 09:46:39;;;;;;;7.47;3.95;;;;;;;33.63;60.20;100388.78;1482488;88;21463;-82
2023/07/17 09:49:09;;;;;;;8.98;4.58;;;;;;;33.48;60.27;100385.73;1483060;87;21753;-81
2023/07/17 09:51:36;;;;;;;6.67;3.98;;;;;;;33.54;60.69;100391.41;1480312;88;21625;-82
2023/07/17 09:54:04;;;;;;;9.43;4.17;;;;;;;33.64;60.68;100382.20;1486604;88;21500;-82
2023/07/17 09:56:32;;;;;;;7.65;3.83;;;;;;;33.79;61.31;100381.09;1485220;87;21497;-82
2023/07/17 09:59:14;;;;;;;8.05;4.00;;;;;;;33.92;61.05;100383.00;1486751;87;21545;-82
2023/07/17 10:01:45;;;;;;;5.42;4.30;;;;;;;33.91;60.20;100384.13;1494820;87;21470;-82
2023/07/17 10:04:13;;;;;;;4.42;3.60;;;;;;;33.99;61.19;100381.25;1485237;87;21479;-82
2023/07/17 10:06:42;;;;;;;3.87;3.50;;;;;;;33.97;60.06;100374.67;1481063;87;21455;-82
2023/07/17 10:09:13;;;;;;;5.92;4.17;;;;;;;34.12;60.92;100377.69;1474459;88;21662;-82
2023/07/17 10:11:39;;;;;;;4.17;3.67;;;;;;;34.19;60.34;100375.92;1487204;87;21433;-82
2023/07/17 10:14:06;;;;;;;4.75;4.17;;;;;;;34.23;60.46;100374.98;1488881;88;21470;-82
2023/07/17 10:16:33;;;;;;;4.85;3.90;;;;;;;34.21;59.77;100373.66;1482875;88;21447;-82
2023/07/17 10:19:01;;;;;;;6.55;4.67;;;;;;;34.33;60.18;100366.53;1482830;87;21441;-82
2023/07/17 10:21:27;;;;;;;4.58;4.17;;;;;;;34.33;59.81;100365.16;1467115;88;21433;-83
2023/07/17 10:23:55;;;;;;;7.00;3.83;;;;;;;34.48;59.80;100364.00;1476377;87;21651;-82
2023/07/17 10:26:22;;;;;;;6.25;3.92;;;;;;;34.67;59.02;100362.52;1475534;87;21449;-81
2023/07/17 10:28:54;;;;;;;4.85;3.98;;;;;;;34.83;58.17;100359.39;1470754;88;22132;-81
2023/07/17 10:31:24;;;;;;;8.15;4.25;;;;;;;34.95;57.64;100358.27;1475994;87;21485;-81
2023/07/17 10:34:03;;;;;;;7.35;4.05;;;;;;;35.08;58.30;100358.80;1469969;87;22343;-81
2023/07/17 10:36:44;;;;;;;5.12;4.08;;;;;;;35.22;58.87;100357.35;1469078;88;21404;-83
2023/07/17 10:39:21;;;;;;;4.58;3.60;;;;;;;35.30;56.98;100364.81;1481509;88;21590;-82
2023/07/17 10:41:51;;;;;;;5.20;3.62;;;;;;;35.37;56.51;100352.01;1472157;88;21449;-83
2023/07/17 10:44:19;;;;;;;4.67;3.67;;;;;;;35.25;48.06;100348.47;1474970;87;21427;-81
2023/07/17 10:46:46;;;;;;;8.70;4.20;;;;;;;35.30;46.58;100347.51;1472665;87;21493;-82
2023/07/17 10:49:15;;;;;;;27.95;5.60;;;;;;;35.33;46.62;100348.25;1477892;87;22373;-82
2023/07/17 10:51:55;;;;;;;7.95;3.95;;;;;;;35.27;45.78;100350.32;1472669;87;22594;-81
2023/07/17 10:54:19;;;;;;;7.97;4.17;;;;;;;35.17;45.05;100340.98;1475201;87;22549;-81
2023/07/17 10:56:48;;;;;;;8.38;4.22;;;;;;;35.03;43.59;100339.64;1469483;88;21515;-81
2023/07/17 10:59:19;;;;;;;4.95;3.90;;;;;;;35.10;43.62;100340.59;1474325;87;21618;-84
2023/07/17 11:01:46;;;;;;;6.75;3.72;;;;;;;35.22;43.39;100336.72;1468049;88;21633;-82
2023/07/17 11:04:13;;;;;;;7.42;3.33;;;;;;;35.32;42.95;100332.31;1463162;87;21457;-80
2023/07/17 11:06:39;;;;;;;6.60;3.72;;;;;;;35.30;43.17;100328.25;1474589;88;22462;-82
2023/07/17 11:09:07;;;;;;;4.90;4.17;;;;;;;35.38;43.56;100321.98;1477907;88;22609;-81
2023/07/17 11:11:33;;;;;;;4.50;3.50;;;;;;;35.45;43.58;100312.16;1470157;87;21471;-82
2023/07/17 11:14:00;;;;;;;22.15;3.72;;;;;;;35.61;43.84;100318.63;1477432;87;22351;-81
2023/07/17 11:16:26;;;;;;;5.47;3.55;;;;;;;35.74;42.79;100312.20;1470930;87;21648;-82
2023/07/17 11:18:55;;;;;;;8.08;3.67;;;;;;;35.82;42.09;100308.67;1475391;87;21500;-82
2023/07/17 11:21:24;;;;;;;;;;;;;;;35.87;41.73;100302.99;1468234;87;21486;-83
2023/07/17 11:23:57;;;;;;;7.47;4.10;;;;;;;35.90;41.29;100298.22;1474648;87;20274;-82
2023/07/17 11:26:31;;;;;;;3.85;3.12;;;;;;;36.01;41.73;100294.60;1471022;87;22402;-82
2023/07/17 11:29:00;;;;;;;8.43;3.83;;;;;;;36.14;41.05;100293.69;1480810;87;22342;-82
2023/07/17 11:31:39;;;;;;;5.80;4.20;;;;;;;36.27;41.38;100289.14;1468869;87;22322;-82
2023/07/17 11:34:12;;;;;;;5.28;3.45;;;;;;;36.37;41.32;100290.22;1475679;87;21493;-82
2023/07/17 11:36:47;;;;;;;5.20;3.47;;;;;;;36.32;39.67;100284.86;1479300;88;21596;-83